CheckWX is a tool to help pilots better visualize weather data.  It is not intended as a substitute for an official pre-flight weather briefing.

06:29:01 UTC

NLWW METAR
Hihifo Airport
Wallis Island, Samoa
Current

29 mins ago

NLWW 070600Z AUTO 34003KT 290V040 9999 NCD 28/25 Q1008 NOSIG
Observed
Apr-7 @ 06:00 UTC
Wind
  • 340° at 3 KTS
Visibility
10,000+ meters
Flight Rules
VFR
Cloud Levels
  • Clear skies
Temperature
28°C / 82°F
Dewpoint
25°C / 77°F
Humidity
84%
Altimeter
29.76" Hg
Pressure
1007.92 hPa
Previous

59 mins ago

NLWW 070530Z AUTO 35003KT 310V020 9999 NCD 28/25 Q1007 NOSIG
Observed
Apr-7 @ 05:30 UTC
Wind
  • 350° at 3 KTS
Visibility
10,000+ meters
Flight Rules
VFR
Cloud Levels
  • Clear skies
Temperature
28°C / 82°F
Dewpoint
25°C / 77°F
Humidity
84%
Altimeter
29.73" Hg
Pressure
1006.92 hPa
Previous

1 hour ago

NLWW 070500Z AUTO 34004KT 310V020 9999 NCD 29/25 Q1007 NOSIG
Observed
Apr-7 @ 05:00 UTC
Wind
  • 340° at 4 KTS
Visibility
10,000+ meters
Flight Rules
VFR
Cloud Levels
  • Clear skies
Temperature
29°C / 84°F
Dewpoint
25°C / 77°F
Humidity
79%
Altimeter
29.73" Hg
Pressure
1006.92 hPa